Time;durP1;ratioP1;P1;durP2;ratioP2;P2;SDS_P1;SDS_P2;PMS_P1;PMS_P2;Temp;Humidity;BMP_temperature;BMP_pressure;BME280_temperature;BME280_humidity;BME280_pressure;Samples;Min_cycle;Max_cycle;Signal;HPM_P1;HPM_P2
2022/10/04 00:01:25;;;;;;;11.88;5.45;;;;;;;14.28;74.06;102284.22;6216823;23;20058;-63
2022/10/04 00:04:04;;;;;;;10.52;5.50;;;;;;;14.22;74.07;102272.59;6217567;23;20051;-64
2022/10/04 00:06:30;;;;;;;10.25;5.97;;;;;;;14.15;74.46;102276.00;6217513;23;20475;-64
2022/10/04 00:09:13;;;;;;;11.52;5.65;;;;;;;14.09;74.75;102283.84;6217564;23;20035;-64
2022/10/04 00:11:43;;;;;;;15.57;5.82;;;;;;;14.10;74.62;102283.00;6217566;23;20005;-64
2022/10/04 00:14:18;;;;;;;10.35;4.97;;;;;;;14.16;74.33;102284.00;6217225;23;20415;-64
2022/10/04 00:16:44;;;;;;;9.10;5.40;;;;;;;14.18;74.32;102273.41;6217523;23;20031;-64
2022/10/04 00:19:19;;;;;;;9.80;5.05;;;;;;;14.21;74.55;102277.00;6190986;23;20411;-63
2022/10/04 00:21:53;;;;;;;13.23;5.28;;;;;;;14.23;74.34;102261.97;6217145;23;20004;-64
2022/10/04 00:24:57;;;;;;;12.57;5.43;;;;;;;14.29;73.96;102259.41;6217128;23;20001;-64
2022/10/04 00:27:25;;;;;;;9.20;5.05;;;;;;;14.17;74.57;102260.94;6216921;23;20008;-64
2022/10/04 00:30:02;;;;;;;8.52;5.07;;;;;;;14.16;74.59;102259.16;6217089;23;20012;-64
2022/10/04 00:32:30;;;;;;;8.38;4.88;;;;;;;14.22;74.60;102254.00;6216617;23;20320;-63
2022/10/04 00:34:58;;;;;;;11.05;5.05;;;;;;;14.26;74.33;102258.47;6216988;23;20004;-63
2022/10/04 00:37:26;;;;;;;12.60;5.32;;;;;;;14.15;74.57;102252.97;6217260;23;20080;-63
2022/10/04 00:40:29;;;;;;;12.45;5.40;;;;;;;14.27;73.72;102239.91;6217220;23;20012;-63
2022/10/04 00:43:13;;;;;;;10.85;5.20;;;;;;;14.19;73.93;102243.28;6155179;23;20013;-63
2022/10/04 00:45:53;;;;;;;10.40;5.40;;;;;;;14.11;73.88;102239.59;6217282;23;20009;-64
2022/10/04 00:48:37;;;;;;;9.90;5.03;;;;;;;14.10;73.48;102249.31;6216949;23;20011;-63
2022/10/04 00:51:02;;;;;;;13.32;5.28;;;;;;;14.02;74.00;102249.19;6216588;23;20335;-63
2022/10/04 00:53:46;;;;;;;12.88;5.10;;;;;;;13.92;74.16;102249.00;6217138;23;20415;-63
2022/10/04 00:56:19;;;;;;;10.65;5.00;;;;;;;13.78;74.25;102246.94;6216897;23;20004;-63
2022/10/04 00:59:06;;;;;;;11.68;5.80;;;;;;;13.68;74.59;102249.38;6217091;23;20064;-63
2022/10/04 01:01:35;;;;;;;9.90;5.15;;;;;;;13.66;74.91;102246.69;6216500;23;20004;-64
2022/10/04 01:04:03;;;;;;;11.02;4.93;;;;;;;13.69;74.76;102245.84;6216645;23;20007;-63
2022/10/04 01:06:30;;;;;;;10.35;5.10;;;;;;;13.72;74.52;102236.19;6216678;23;20005;-64
2022/10/04 01:09:06;;;;;;;9.18;5.32;;;;;;;13.61;75.08;102227.09;6216638;23;20005;-64
2022/10/04 01:11:41;;;;;;;10.68;4.88;;;;;;;13.59;75.37;102214.66;6216663;23;20016;-63
2022/10/04 01:14:24;;;;;;;11.73;5.40;;;;;;;13.58;74.98;102216.44;6216647;23;20012;-63
2022/10/04 01:16:50;;;;;;;11.57;5.55;;;;;;;13.47;75.75;102208.22;6216928;23;20059;-64
2022/10/04 01:19:22;;;;;;;8.40;5.25;;;;;;;13.26;76.52;102211.31;6216576;23;20005;-63
2022/10/04 01:22:07;;;;;;;14.77;5.10;;;;;;;13.12;76.69;102214.53;6216370;23;20331;-64
2022/10/04 01:24:43;;;;;;;8.73;4.97;;;;;;;13.03;76.75;102215.22;6215716;23;20267;-63
2022/10/04 01:27:41;;;;;;;10.45;5.40;;;;;;;13.11;77.03;102212.72;6216887;23;20004;-63
2022/10/04 01:30:16;;;;;;;10.50;5.35;;;;;;;13.09;77.57;102212.69;6216602;23;20074;-63
2022/10/04 01:32:42;;;;;;;9.88;5.10;;;;;;;13.01;76.94;102201.88;6216204;23;20020;-64
2022/10/04 01:35:10;;;;;;;15.18;5.30;;;;;;;12.98;76.78;102206.25;6216546;23;20419;-63
2022/10/04 01:37:38;;;;;;;8.10;5.15;;;;;;;13.01;76.96;102207.19;6216391;23;20009;-63
2022/10/04 01:40:05;;;;;;;9.80;4.85;;;;;;;13.06;76.53;102211.72;6216673;23;20409;-63
2022/10/04 01:42:53;;;;;;;11.40;5.10;;;;;;;13.12;76.20;102203.91;6216494;23;20009;-64
2022/10/04 01:45:46;;;;;;;9.68;5.07;;;;;;;13.12;75.92;102209.22;6216318;23;20005;-64
2022/10/04 01:48:19;;;;;;;11.30;5.18;;;;;;;13.09;75.73;102198.53;6216456;23;20051;-63
2022/10/04 01:50:57;;;;;;;8.57;4.90;;;;;;;13.15;75.67;102196.91;6216379;23;20015;-64
2022/10/04 01:53:28;;;;;;;10.43;5.07;;;;;;;13.12;75.44;102193.28;6192169;23;20090;-63
2022/10/04 01:56:04;;;;;;;10.73;4.82;;;;;;;13.00;75.63;102191.25;6216308;23;20359;-63
2022/10/04 01:58:37;;;;;;;10.30;5.10;;;;;;;12.95;75.93;102192.91;6216519;23;20012;-64
2022/10/04 02:01:13;;;;;;;9.82;5.05;;;;;;;12.91;75.67;102197.25;6216026;23;20004;-64
2022/10/04 02:03:54;;;;;;;8.23;4.90;;;;;;;12.86;76.29;102190.94;6216002;23;20008;-63
2022/10/04 02:06:21;;;;;;;8.95;5.20;;;;;;;12.74;76.99;102182.69;6216224;23;20063;-64
2022/10/04 02:08:49;;;;;;;11.32;5.18;;;;;;;12.67;77.44;102175.44;6216391;23;20012;-64
2022/10/04 02:11:20;;;;;;;9.02;5.00;;;;;;;12.59;77.55;102187.63;6216097;23;20001;-63
2022/10/04 02:13:49;;;;;;;9.02;4.80;;;;;;;12.57;77.81;102182.31;6216299;23;20008;-63
2022/10/04 02:16:16;;;;;;;7.80;4.88;;;;;;;12.61;77.62;102165.59;6216082;23;20493;-64
2022/10/04 02:18:43;;;;;;;11.93;5.15;;;;;;;12.61;77.40;102162.06;6215919;23;20005;-63
2022/10/04 02:21:10;;;;;;;10.07;4.45;;;;;;;12.55;77.48;102162.81;6216247;23;20034;-64
2022/10/04 02:23:38;;;;;;;9.70;4.90;;;;;;;12.48;78.43;102153.81;6216153;23;20028;-63
2022/10/04 02:26:08;;;;;;;8.32;5.20;;;;;;;12.39;78.78;102143.00;6216214;23;20073;-64
2022/10/04 02:28:35;;;;;;;10.35;4.80;;;;;;;12.27;79.40;102146.22;6215982;23;20005;-63
2022/10/04 02:33:49;;;;;;;9.32;5.43;;;;;;;12.14;80.34;102140.59;6186068;23;20028;-63
2022/10/04 02:36:16;;;;;;;14.82;5.97;;;;;;;12.08;80.84;102140.47;6186098;23;20059;-63
2022/10/04 02:38:45;;;;;;;13.73;5.88;;;;;;;12.13;81.05;102137.06;6185675;23;20015;-63
2022/10/04 02:41:30;;;;;;;12.32;5.75;;;;;;;12.17;80.67;102132.72;6185671;23;20005;-63
2022/10/04 02:44:14;;;;;;;9.32;5.85;;;;;;;12.19;80.66;102129.25;6185674;23;20367;-64
2022/10/04 02:46:52;;;;;;;10.85;6.00;;;;;;;12.23;80.75;102124.91;6186014;23;20005;-63
2022/10/04 02:49:22;;;;;;;12.45;6.32;;;;;;;12.14;79.97;102120.28;6185748;23;20032;-63
2022/10/04 02:52:04;;;;;;;10.68;6.68;;;;;;;12.30;79.98;102105.66;6186080;23;20020;-64
2022/10/04 02:55:03;;;;;;;12.90;6.07;;;;;;;12.35;79.46;102095.16;6186028;23;20336;-63
2022/10/04 02:57:32;;;;;;;11.25;6.10;;;;;;;12.35;79.69;102101.38;6179596;23;20036;-63
2022/10/04 03:00:16;;;;;;;12.63;6.22;;;;;;;12.39;79.23;102094.38;6184328;23;20340;-63
2022/10/04 03:03:21;;;;;;;12.48;6.47;;;;;;;12.45;79.00;102091.88;6185335;23;20005;-64
2022/10/04 03:06:16;;;;;;;14.05;6.30;;;;;;;12.52;79.11;102083.19;6185580;23;20055;-63
2022/10/04 03:08:42;;;;;;;10.35;6.20;;;;;;;12.54;78.70;102084.13;6185418;23;20005;-63
2022/10/04 03:11:10;;;;;;;11.73;6.57;;;;;;;12.52;78.46;102077.91;6185504;23;20001;-63
2022/10/04 03:13:38;;;;;;;15.82;6.32;;;;;;;12.44;78.40;102083.00;6185349;23;20020;-63
2022/10/04 03:16:04;;;;;;;12.68;7.07;;;;;;;12.32;79.49;102082.72;6185811;23;20012;-63
2022/10/04 03:18:31;;;;;;;16.83;7.85;;;;;;;12.28;79.42;102080.88;6159133;23;20434;-63
2022/10/04 03:20:59;;;;;;;16.55;7.20;;;;;;;12.30;79.87;102078.28;6186033;23;20008;-63
2022/10/04 03:23:28;;;;;;;13.43;7.47;;;;;;;12.19;79.47;102075.34;6185491;23;20009;-63
2022/10/04 03:26:37;;;;;;;13.10;7.20;;;;;;;12.19;79.57;102068.28;6185571;23;20080;-63
2022/10/04 03:29:09;;;;;;;12.25;6.57;;;;;;;12.25;78.91;102067.56;6185432;23;20305;-63
2022/10/04 03:31:39;;;;;;;14.77;7.43;;;;;;;12.20;79.56;102071.84;6191822;23;20036;-63
2022/10/04 03:34:30;;;;;;;11.00;6.70;;;;;;;12.12;79.46;102066.38;6215840;23;20047;-63
2022/10/04 03:36:57;;;;;;;13.80;7.20;;;;;;;11.97;79.69;102056.28;6214837;23;20378;-63
2022/10/04 03:39:28;;;;;;;13.88;6.93;;;;;;;11.84;80.28;102062.16;6215363;23;20004;-63
2022/10/04 03:41:56;;;;;;;15.50;7.30;;;;;;;11.72;80.93;102053.84;6215429;23;20043;-63
2022/10/04 03:44:22;;;;;;;16.10;7.18;;;;;;;11.69;81.20;102059.06;6215734;23;20020;-63
2022/10/04 03:46:48;;;;;;;15.30;7.20;;;;;;;11.68;81.03;102060.81;6215669;23;20324;-64
2022/10/04 03:49:22;;;;;;;11.20;6.47;;;;;;;11.77;81.24;102052.22;6215430;23;20004;-63
2022/10/04 03:51:49;;;;;;;16.42;6.95;;;;;;;11.87;81.61;102054.28;6215500;23;20100;-63
2022/10/04 03:54:21;;;;;;;11.32;6.78;;;;;;;11.96;80.42;102054.50;6215714;23;20020;-63
2022/10/04 03:56:47;;;;;;;13.45;6.45;;;;;;;12.02;79.90;102052.00;6215431;23;20427;-64
2022/10/04 03:59:17;;;;;;;16.80;6.25;;;;;;;12.10;79.60;102046.88;6215738;23;20005;-63
2022/10/04 04:02:04;;;;;;;10.98;6.60;;;;;;;12.13;78.71;102043.44;6214976;23;20331;-63
2022/10/04 04:04:49;;;;;;;12.73;6.50;;;;;;;12.17;78.27;102046.19;6215437;23;20004;-63
2022/10/04 04:07:29;;;;;;;10.57;6.25;;;;;;;12.11;78.09;102038.06;6215741;23;20323;-63
2022/10/04 04:10:16;;;;;;;11.23;5.80;;;;;;;12.13;78.04;102043.44;6215548;23;20335;-63
2022/10/04 04:12:42;;;;;;;11.57;6.45;;;;;;;12.05;78.17;102039.69;6215656;23;20009;-63
2022/10/04 04:15:11;;;;;;;11.63;5.90;;;;;;;12.01;77.91;102041.38;6215711;23;20084;-64
2022/10/04 04:17:50;;;;;;;9.93;6.15;;;;;;;12.00;78.47;102048.44;6215621;23;20039;-63
2022/10/04 04:20:29;;;;;;;9.13;5.78;;;;;;;11.99;78.45;102045.72;6215363;23;20005;-63
2022/10/04 04:23:10;;;;;;;10.38;6.25;;;;;;;11.94;79.06;102042.06;6215520;23;20008;-63
2022/10/04 04:25:38;;;;;;;10.07;5.72;;;;;;;11.94;78.82;102040.31;6216006;23;20005;-63
2022/10/04 04:28:24;;;;;;;9.88;6.05;;;;;;;11.98;78.19;102051.88;6217070;23;20001;-63
2022/10/04 04:30:54;;;;;;;9.82;5.60;;;;;;;12.00;78.38;102044.88;6190219;23;20016;-63
2022/10/04 04:33:28;;;;;;;11.90;5.75;;;;;;;12.01;78.12;102050.22;6216848;23;20020;-63
2022/10/04 04:35:55;;;;;;;10.65;6.40;;;;;;;11.86;78.18;102036.59;6217056;23;20000;-63
2022/10/04 04:38:23;;;;;;;11.32;6.28;;;;;;;11.76;78.77;102051.31;6217232;23;20074;-64
2022/10/04 04:40:54;;;;;;;15.85;7.32;;;;;;;11.77;78.95;102044.25;6217157;23;20014;-63
2022/10/04 04:43:23;;;;;;;11.93;6.70;;;;;;;11.74;79.57;102036.28;6216669;23;20338;-63
2022/10/04 04:45:49;;;;;;;16.85;7.28;;;;;;;11.75;79.69;102041.59;6216835;23;20419;-63
2022/10/04 04:48:17;;;;;;;11.70;6.90;;;;;;;11.67;79.90;102034.31;6216755;23;20118;-63
2022/10/04 04:50:50;;;;;;;12.48;6.50;;;;;;;11.62;80.25;102034.19;6190128;23;20079;-63
2022/10/04 04:53:29;;;;;;;11.63;6.38;;;;;;;11.61;80.47;102032.41;6216711;23;20009;-63
2022/10/04 04:55:58;;;;;;;11.68;6.32;;;;;;;11.70;80.03;102030.00;6190025;23;20443;-63
2022/10/04 04:58:28;;;;;;;12.80;6.57;;;;;;;11.73;79.70;102011.53;6216955;23;20004;-63
2022/10/04 05:01:07;;;;;;;10.93;6.43;;;;;;;11.68;79.45;102014.91;6216843;23;20029;-64
2022/10/04 05:03:33;;;;;;;13.85;6.70;;;;;;;11.57;80.29;102016.41;6216746;23;20007;-63
2022/10/04 05:06:03;;;;;;;11.43;6.90;;;;;;;11.40;80.79;102023.91;6217019;23;20305;-63
2022/10/04 05:08:34;;;;;;;11.05;6.72;;;;;;;11.29;81.57;102013.94;6216900;23;20376;-63
2022/10/04 05:11:08;;;;;;;9.98;6.57;;;;;;;11.26;81.95;102028.81;6217091;23;20005;-63
2022/10/04 05:14:16;;;;;;;11.40;7.07;;;;;;;11.37;81.49;102026.47;6217020;23;20013;-63
2022/10/04 05:16:49;;;;;;;11.70;6.50;;;;;;;11.46;81.35;102022.31;6216471;23;20051;-63
2022/10/04 05:19:27;;;;;;;12.55;7.15;;;;;;;11.48;80.80;102025.91;6216632;23;20043;-64
2022/10/04 05:21:55;;;;;;;19.05;7.15;;;;;;;11.37;80.85;102027.38;6216781;23;20008;-63
2022/10/04 05:24:23;;;;;;;11.48;7.60;;;;;;;11.25;81.77;102024.38;6216566;23;20508;-64
2022/10/04 05:26:55;;;;;;;12.45;6.88;;;;;;;11.27;82.21;102026.25;6216758;23;20001;-64
2022/10/04 05:29:26;;;;;;;15.18;6.60;;;;;;;11.36;81.39;102022.03;6216552;23;20413;-64
2022/10/04 05:31:57;;;;;;;12.93;6.72;;;;;;;11.42;81.20;102022.19;6215803;23;20016;-64
2022/10/04 05:34:26;;;;;;;16.13;6.78;;;;;;;11.27;81.43;102020.94;6216630;23;20080;-64
2022/10/04 05:37:09;;;;;;;11.93;7.15;;;;;;;11.18;81.92;102023.34;6216580;23;20005;-64
2022/10/04 05:39:47;;;;;;;15.98;6.80;;;;;;;11.12;81.99;102020.50;6216557;23;20374;-64
2022/10/04 05:42:36;;;;;;;12.27;6.90;;;;;;;11.16;81.85;102027.69;6189792;23;20008;-64
2022/10/04 05:45:13;;;;;;;11.77;6.25;;;;;;;11.27;81.70;102033.28;6216316;23;20083;-64
2022/10/04 05:47:41;;;;;;;13.45;6.50;;;;;;;11.35;81.08;102025.53;6216344;23;20005;-64
2022/10/04 05:50:16;;;;;;;9.52;6.25;;;;;;;11.36;80.56;102036.16;6216359;23;20001;-63
2022/10/04 05:52:42;;;;;;;11.00;6.30;;;;;;;11.32;80.03;102036.94;6216514;23;20008;-64
2022/10/04 05:55:25;;;;;;;11.48;6.15;;;;;;;11.28;79.66;102035.97;6189792;23;20457;-63
2022/10/04 05:58:02;;;;;;;10.88;6.25;;;;;;;11.17;80.76;102026.81;6216127;23;20312;-64
2022/10/04 06:01:17;;;;;;;10.25;5.80;;;;;;;11.16;81.46;102032.09;6216328;23;20004;-63
2022/10/04 06:04:15;;;;;;;11.32;6.43;;;;;;;11.08;81.83;102037.16;6216089;23;20027;-64
2022/10/04 06:06:55;;;;;;;11.88;7.28;;;;;;;11.10;81.53;102039.88;6216454;23;20005;-63
2022/10/04 06:09:27;;;;;;;9.60;5.38;;;;;;;11.20;81.32;102040.13;6189998;23;20051;-64
2022/10/04 06:12:05;;;;;;;11.07;6.10;;;;;;;11.26;80.64;102045.63;6216006;23;20004;-64
2022/10/04 06:14:47;;;;;;;12.98;6.03;;;;;;;11.42;80.61;102052.19;6216062;23;20527;-64
2022/10/04 06:17:40;;;;;;;11.13;5.50;;;;;;;11.57;80.42;102048.19;6216304;23;20032;-63
2022/10/04 06:20:39;;;;;;;10.98;5.72;;;;;;;11.57;79.36;102050.81;6216328;23;20001;-64
2022/10/04 06:23:17;;;;;;;9.88;5.85;;;;;;;11.63;79.45;102049.22;6215913;23;20009;-63
2022/10/04 06:25:48;;;;;;;11.20;5.97;;;;;;;11.61;79.46;102050.06;6215917;23;20435;-64
2022/10/04 06:28:23;;;;;;;12.13;5.72;;;;;;;11.67;79.78;102052.84;6215963;23;20300;-63
2022/10/04 06:31:09;;;;;;;11.02;5.43;;;;;;;11.70;79.33;102051.19;6215685;23;20062;-64
2022/10/04 06:33:35;;;;;;;12.18;5.60;;;;;;;11.61;79.75;102050.94;6215606;23;20012;-64
2022/10/04 06:36:33;;;;;;;9.73;5.18;;;;;;;11.65;79.75;102046.59;6215772;23;20050;-64
2022/10/04 06:39:26;;;;;;;10.82;5.20;;;;;;;11.71;79.67;102041.47;6215850;23;20008;-63
2022/10/04 06:42:09;;;;;;;10.30;5.28;;;;;;;11.78;79.41;102040.78;6215958;23;20009;-64
2022/10/04 06:45:07;;;;;;;10.02;5.00;;;;;;;11.81;79.74;102040.84;6215772;23;20335;-63
2022/10/04 06:47:48;;;;;;;10.57;5.50;;;;;;;11.71;79.82;102036.19;6209643;23;20008;-64
2022/10/04 06:50:19;;;;;;;10.70;5.22;;;;;;;11.69;80.08;102038.81;6215499;23;20004;-64
2022/10/04 06:53:10;;;;;;;10.05;5.60;;;;;;;11.70;80.15;102037.03;6215948;23;20300;-64
2022/10/04 06:55:45;;;;;;;10.50;5.22;;;;;;;11.68;80.55;102039.63;6216014;23;20015;-64
2022/10/04 06:58:44;;;;;;;10.05;5.60;;;;;;;11.65;80.33;102041.31;6215840;23;20011;-64
2022/10/04 07:01:32;;;;;;;8.40;5.00;;;;;;;11.62;80.45;102041.25;6215618;23;20055;-63
2022/10/04 07:04:32;;;;;;;12.13;5.10;;;;;;;11.57;80.68;102046.44;6215990;23;20000;-64
2022/10/04 07:07:26;;;;;;;13.35;5.55;;;;;;;11.62;80.91;102036.84;6188898;23;20005;-64
2022/10/04 07:10:41;;;;;;;17.15;5.20;;;;;;;11.76;80.06;102032.78;6215890;23;20068;-63
2022/10/04 07:13:39;;;;;;;12.30;5.47;;;;;;;11.77;80.04;102025.72;6183116;23;20013;-64
2022/10/04 07:16:36;;;;;;;10.82;5.15;;;;;;;11.72;81.05;102022.97;6215952;23;20083;-64
2022/10/04 07:19:35;;;;;;;9.63;5.13;;;;;;;11.82;80.72;102024.13;6215603;23;20008;-64
2022/10/04 07:22:20;;;;;;;13.10;5.35;;;;;;;12.13;80.11;102016.94;6215434;23;20004;-63
2022/10/04 07:25:01;;;;;;;10.05;5.20;;;;;;;12.39;79.15;102020.16;6214897;23;20100;-64
2022/10/04 07:30:38;;;;;;;12.95;5.60;;;;;;;13.02;77.78;102007.34;6215425;23;20327;-64
2022/10/04 07:33:07;;;;;;;9.30;4.90;;;;;;;13.22;75.54;102005.09;6215344;23;20374;-64
2022/10/04 07:35:45;;;;;;;11.98;5.30;;;;;;;13.39;75.96;102015.13;6215719;23;20005;-64
2022/10/04 07:38:16;;;;;;;11.40;5.20;;;;;;;13.50;75.43;102021.53;6215869;23;20001;-64
2022/10/04 07:41:07;;;;;;;11.82;4.97;;;;;;;13.70;74.25;102013.88;6215551;23;20008;-64
2022/10/04 07:43:43;;;;;;;10.73;4.82;;;;;;;13.89;73.43;102023.06;6215279;23;20464;-64
2022/10/04 07:46:39;;;;;;;10.93;5.00;;;;;;;14.01;73.94;102024.16;6215776;23;20012;-63
2022/10/04 07:49:12;;;;;;;13.43;5.25;;;;;;;14.15;71.94;102032.31;6215371;23;20331;-64
2022/10/04 07:52:35;;;;;;;12.35;5.35;;;;;;;14.38;72.42;102039.72;6215786;23;20021;-63
2022/10/04 07:55:47;;;;;;;9.48;5.70;;;;;;;14.75;71.96;102033.19;6140237;23;20080;-64
2022/10/04 07:58:35;;;;;;;11.43;5.45;;;;;;;14.91;69.46;102034.28;6141130;23;20024;-63
2022/10/04 08:01:00;;;;;;;10.77;5.03;;;;;;;14.97;69.40;102024.56;6211311;23;20009;-63
2022/10/04 08:03:57;;;;;;;11.73;5.25;;;;;;;15.11;68.51;102026.50;6217493;23;20008;-64
2022/10/04 08:06:38;;;;;;;12.40;5.15;;;;;;;15.31;69.16;102016.97;6217632;23;20016;-64
2022/10/04 08:09:16;;;;;;;7.80;4.47;;;;;;;15.52;67.62;102013.59;6217452;23;20000;-64
2022/10/04 08:11:57;;;;;;;9.20;4.60;;;;;;;15.84;66.88;102026.34;6217190;23;20004;-64
2022/10/04 08:14:55;;;;;;;10.00;4.55;;;;;;;15.99;65.58;102008.69;6217095;23;20015;-64
2022/10/04 08:17:52;;;;;;;11.07;4.68;;;;;;;16.05;64.34;102001.63;6217243;23;20034;-64
2022/10/04 08:20:26;;;;;;;10.52;4.32;;;;;;;16.10;64.35;101999.88;6208299;23;20005;-64
2022/10/04 08:23:00;;;;;;;13.57;4.78;;;;;;;16.23;64.11;101993.72;6217087;23;20012;-64
2022/10/04 08:25:58;;;;;;;11.50;4.45;;;;;;;16.48;63.51;102000.09;6217050;23;20032;-64
2022/10/04 08:31:53;;;;;;;12.07;4.63;;;;;;;17.03;61.88;102005.66;6216847;23;20351;-63
2022/10/04 08:34:37;;;;;;;9.65;4.47;;;;;;;17.17;62.41;102005.69;6187033;23;20013;-63
2022/10/04 08:37:20;;;;;;;11.10;4.63;;;;;;;17.11;60.38;102011.91;6186851;23;20092;-63
2022/10/04 08:40:00;;;;;;;9.88;4.40;;;;;;;16.62;61.06;102008.19;6186793;23;20048;-63
2022/10/04 08:42:32;;;;;;;9.52;4.68;;;;;;;16.49;62.13;102017.91;6186832;23;20001;-63
2022/10/04 08:45:25;;;;;;;11.93;5.32;;;;;;;16.55;62.58;102009.91;6186805;23;20005;-63
2022/10/04 08:48:21;;;;;;;9.50;5.00;;;;;;;16.78;62.17;102008.25;6186788;23;20474;-63
2022/10/04 08:51:05;;;;;;;14.27;5.28;;;;;;;17.00;61.78;102013.66;6187130;23;20008;-63
2022/10/04 08:53:55;;;;;;;11.82;5.10;;;;;;;17.27;60.82;102008.41;6186621;23;20008;-63
2022/10/04 08:56:35;;;;;;;11.95;5.13;;;;;;;17.61;60.26;102012.91;6186815;23;20072;-63
2022/10/04 08:59:28;;;;;;;16.00;5.28;;;;;;;17.66;58.54;102012.00;6186744;23;20503;-63
2022/10/04 09:02:15;;;;;;;10.20;5.10;;;;;;;17.86;58.54;102017.38;6186756;23;20051;-64
2022/10/04 09:04:40;;;;;;;10.35;4.70;;;;;;;18.19;58.15;102005.72;6187005;23;20012;-63
2022/10/04 09:07:54;;;;;;;11.98;5.20;;;;;;;18.26;58.54;102001.25;6186905;23;20009;-63
2022/10/04 09:10:44;;;;;;;13.25;5.13;;;;;;;18.35;57.24;102006.59;6081119;23;20007;-63
2022/10/04 09:13:36;;;;;;;10.73;5.13;;;;;;;18.51;56.56;102021.72;6186633;23;20005;-63
2022/10/04 09:16:14;;;;;;;11.23;5.25;;;;;;;18.46;55.52;102026.19;6186653;23;20059;-64
2022/10/04 09:19:03;;;;;;;9.95;5.43;;;;;;;18.40;56.41;102019.94;6186852;23;20062;-64
2022/10/04 09:22:01;;;;;;;10.38;5.43;;;;;;;19.03;56.39;102017.94;6160186;23;20027;-63
2022/10/04 09:25:03;;;;;;;12.70;5.30;;;;;;;19.20;55.43;102009.81;6083142;23;20091;-64
2022/10/04 09:27:46;;;;;;;12.60;5.50;;;;;;;19.57;53.68;102004.16;6186615;23;20012;-64
2022/10/04 09:30:32;;;;;;;10.75;5.50;;;;;;;19.81;52.61;102003.13;6186557;23;20043;-64
2022/10/04 09:33:20;;;;;;;9.93;5.15;;;;;;;19.74;52.97;102011.22;6200762;23;20016;-63
2022/10/04 09:36:19;;;;;;;9.00;5.18;;;;;;;19.93;53.44;102003.91;6216330;23;20324;-63
2022/10/04 09:39:17;;;;;;;10.85;5.13;;;;;;;20.21;53.14;101990.19;6216695;23;20035;-64
2022/10/04 09:41:57;;;;;;;10.65;5.32;;;;;;;20.31;51.86;101983.81;6216608;23;20008;-64
2022/10/04 09:44:47;;;;;;;11.02;4.95;;;;;;;20.31;52.11;101989.19;6216583;23;20001;-64
2022/10/04 09:47:50;;;;;;;11.07;5.00;;;;;;;19.82;51.97;101980.75;6216567;23;20013;-63
2022/10/04 09:50:36;;;;;;;10.65;4.60;;;;;;;19.95;51.73;101977.94;6181277;23;20066;-63
2022/10/04 09:53:01;;;;;;;10.38;4.80;;;;;;;19.78;52.14;101990.63;6216623;23;20012;-64
2022/10/04 09:55:40;;;;;;;11.52;5.00;;;;;;;20.15;52.07;101991.16;6216324;23;20005;-63
2022/10/04 09:58:28;;;;;;;10.18;4.65;;;;;;;20.72;51.90;101991.38;6216483;23;20036;-64
2022/10/04 10:01:41;;;;;;;11.00;4.30;;;;;;;20.66;50.42;101988.78;6216121;23;20005;-63
2022/10/04 10:04:27;;;;;;;10.10;4.97;;;;;;;20.58;50.07;101981.75;6190308;23;20005;-63
2022/10/04 10:07:24;;;;;;;8.25;4.40;;;;;;;20.63;51.15;101988.81;6216078;23;20115;-64
2022/10/04 10:16:40;;;;;;;7.68;4.53;;;;;;;21.19;49.60;101983.56;6216082;23;20023;-64
2022/10/04 10:19:21;;;;;;;11.10;4.68;;;;;;;21.45;48.55;101975.13;6216378;23;20015;-64
2022/10/04 10:21:52;;;;;;;11.45;4.70;;;;;;;21.69;47.89;101969.34;6215822;23;20005;-64
2022/10/04 10:24:55;;;;;;;13.80;4.90;;;;;;;21.97;48.37;101967.06;6215477;23;20012;-64
2022/10/04 10:27:58;;;;;;;11.38;4.80;;;;;;;21.67;47.25;101963.13;6215728;23;20001;-64
2022/10/04 10:30:48;;;;;;;12.63;5.00;;;;;;;21.75;48.08;101958.50;6215579;23;20036;-64
2022/10/04 10:33:23;;;;;;;10.95;4.10;;;;;;;21.28;47.01;101956.53;6215794;23;20048;-64
2022/10/04 10:36:03;;;;;;;9.02;4.40;;;;;;;21.22;48.83;101957.53;6215764;23;20036;-64
2022/10/04 10:39:06;;;;;;;11.80;4.90;;;;;;;21.05;47.82;101962.28;6215930;23;20026;-64
2022/10/04 10:41:32;;;;;;;;;;;;;;;21.13;49.87;101959.50;6216276;23;20493;-64
2022/10/04 10:44:10;;;;;;;8.40;3.97;;;;;;;21.14;49.15;101951.38;6215905;23;20288;-64
2022/10/04 10:47:10;;;;;;;10.90;4.38;;;;;;;21.39;48.34;101962.69;6215885;23;20004;-65
2022/10/04 10:50:02;;;;;;;9.45;4.55;;;;;;;21.27;48.73;101965.53;6209656;23;20005;-64
2022/10/04 10:52:47;;;;;;;9.90;4.30;;;;;;;21.59;48.66;101975.81;6216272;23;20004;-64
2022/10/04 10:55:12;;;;;;;8.88;4.13;;;;;;;21.79;47.67;101972.75;6216042;23;20507;-64
2022/10/04 10:58:02;;;;;;;9.88;4.20;;;;;;;22.27;46.43;101975.50;6215742;23;20032;-65
2022/10/04 11:00:30;;;;;;;10.95;4.30;;;;;;;22.31;47.44;101970.91;6215551;23;20051;-64
2022/10/04 11:03:16;;;;;;;12.32;4.10;;;;;;;;;;6215574;23;20036;-65
2022/10/04 11:06:09;;;;;;;11.13;4.30;;;;;;;22.56;46.55;101956.00;6216090;23;20019;-64
2022/10/04 11:09:11;;;;;;;7.93;4.05;;;;;;;22.99;45.83;101958.69;6216143;23;20008;-65
2022/10/04 11:12:10;;;;;;;9.07;3.85;;;;;;;23.10;44.78;101950.34;6215614;23;20011;-63
2022/10/04 11:15:13;;;;;;;7.72;3.50;;;;;;;23.14;44.12;101943.09;6215582;23;20001;-64
2022/10/04 11:17:45;;;;;;;6.53;3.35;;;;;;;22.78;42.31;101942.97;6215503;23;20427;-65
2022/10/04 11:20:32;;;;;;;9.10;3.70;;;;;;;22.86;42.66;101937.41;6215467;23;20004;-65
2022/10/04 11:23:47;;;;;;;8.90;3.67;;;;;;;23.06;44.89;101940.56;6215337;23;20419;-65
2022/10/04 11:26:25;;;;;;;9.65;3.88;;;;;;;22.92;43.90;101935.50;6163628;23;20013;-64
2022/10/04 11:29:02;;;;;;;13.35;4.25;;;;;;;22.83;44.30;101924.03;6215482;23;20009;-64
2022/10/04 11:31:47;;;;;;;8.52;3.75;;;;;;;22.87;44.53;101917.59;6215251;23;20012;-65
2022/10/04 11:34:36;;;;;;;12.65;3.95;;;;;;;22.72;44.60;101924.25;6215316;23;20020;-64
2022/10/04 11:37:20;;;;;;;8.20;3.80;;;;;;;22.60;44.91;101916.44;6217624;23;20005;-64
2022/10/04 11:40:09;;;;;;;8.85;3.95;;;;;;;22.69;46.28;101917.09;6217794;23;20004;-64
2022/10/04 11:42:40;;;;;;;9.80;3.92;;;;;;;22.80;43.79;101918.69;6217418;23;20027;-64
2022/10/04 11:45:32;;;;;;;8.67;3.80;;;;;;;22.56;44.32;101920.13;6217841;23;20030;-64
2022/10/04 11:48:17;;;;;;;7.60;3.78;;;;;;;22.44;44.36;101905.09;6217697;23;20270;-64
2022/10/04 11:50:46;;;;;;;7.82;4.00;;;;;;;22.48;43.46;101902.34;6217467;23;20005;-63
2022/10/04 11:53:35;;;;;;;8.35;3.88;;;;;;;22.63;43.99;101908.28;6217302;23;20141;-63
2022/10/04 11:56:23;;;;;;;6.45;3.72;;;;;;;22.83;44.11;101894.38;6217372;23;20016;-63
2022/10/04 11:59:16;;;;;;;7.10;3.13;;;;;;;22.28;44.20;101892.91;6217297;23;20458;-64
2022/10/04 12:02:15;;;;;;;10.75;3.30;;;;;;;22.38;45.73;101892.66;6191239;23;20004;-65
2022/10/04 12:04:57;;;;;;;11.65;3.70;;;;;;;22.04;44.06;101900.53;6217299;23;20008;-67
2022/10/04 12:07:22;;;;;;;8.35;3.50;;;;;;;22.04;44.73;101895.13;6217365;23;20020;-67
2022/10/04 12:10:06;;;;;;;8.50;3.20;;;;;;;21.90;44.32;101892.72;6217149;23;20004;-66
2022/10/04 12:12:43;;;;;;;10.70;3.67;;;;;;;21.77;44.86;101890.31;6217547;23;20019;-63
2022/10/04 12:15:19;;;;;;;9.40;3.88;;;;;;;21.49;45.84;101902.44;6217574;23;20008;-63
2022/10/04 12:18:06;;;;;;;7.90;3.40;;;;;;;21.73;47.24;101901.13;6217055;23;20466;-66
2022/10/04 12:20:42;;;;;;;13.57;4.10;;;;;;;22.16;46.13;101892.22;6217143;23;20007;-64
2022/10/04 12:23:38;;;;;;;8.63;3.85;;;;;;;21.79;44.39;101892.03;6217355;23;20413;-65
2022/10/04 12:26:42;;;;;;;7.40;3.40;;;;;;;21.69;44.90;101896.72;6217110;23;20292;-65
2022/10/04 12:29:44;;;;;;;9.23;3.53;;;;;;;21.42;46.13;101881.09;6216980;23;20040;-64
2022/10/04 12:32:15;;;;;;;9.10;3.45;;;;;;;21.57;46.75;101869.16;6216687;23;20028;-65
2022/10/04 12:35:00;;;;;;;9.15;3.95;;;;;;;21.76;45.47;101875.97;6190292;23;20422;-64
2022/10/04 12:37:51;;;;;;;8.82;3.63;;;;;;;21.88;45.08;101878.41;6217313;23;20023;-64